Time;durP1;ratioP1;P1;durP2;ratioP2;P2;SDS_P1;SDS_P2;PMS_P1;PMS_P2;Temp;Humidity;BMP_temperature;BMP_pressure;BME280_temperature;BME280_humidity;BME280_pressure;Samples;Min_cycle;Max_cycle;Signal;HPM_P1;HPM_P2
2023/07/02 00:01:58;;;;;;;11.98;4.30;;;19.10;98.40;;;;;;5049696;28;20112;-77
2023/07/02 00:04:24;;;;;;;11.50;4.93;;;19.10;98.30;;;;;;5051220;28;20079;-77
2023/07/02 00:06:50;;;;;;;12.90;5.85;;;19.10;98.30;;;;;;5049157;28;20482;-77
2023/07/02 00:09:16;;;;;;;11.95;5.00;;;19.00;98.60;;;;;;5050424;28;20017;-76
2023/07/02 00:11:43;;;;;;;10.95;5.28;;;19.10;98.70;;;;;;5050492;28;20467;-76
2023/07/02 00:14:10;;;;;;;16.60;6.88;;;19.00;99.00;;;;;;5050712;28;20025;-77
2023/07/02 00:16:38;;;;;;;16.27;6.10;;;19.00;99.00;;;;;;5050524;28;20021;-76
2023/07/02 00:19:04;;;;;;;18.88;6.75;;;19.00;98.90;;;;;;5050413;28;20104;-77
2023/07/02 00:21:33;;;;;;;16.92;6.85;;;19.00;99.10;;;;;;5049171;28;20120;-75
2023/07/02 00:23:59;;;;;;;20.13;7.28;;;19.00;99.20;;;;;;5058395;28;20056;-76
2023/07/02 00:26:28;;;;;;;15.85;7.80;;;19.00;99.20;;;;;;5052223;28;20043;-75
2023/07/02 00:28:54;;;;;;;18.33;7.35;;;19.00;99.10;;;;;;5070262;28;20025;-76
2023/07/02 00:31:20;;;;;;;16.48;8.10;;;19.00;98.80;;;;;;5069806;28;20025;-75
2023/07/02 00:33:46;;;;;;;21.27;8.77;;;19.00;98.90;;;;;;5069678;28;20024;-76
2023/07/02 00:36:14;;;;;;;17.85;6.90;;;18.90;99.40;;;;;;5069881;28;20038;-77
2023/07/02 00:38:45;;;;;;;19.23;8.63;;;18.90;99.00;;;;;;5069935;28;20025;-75
2023/07/02 00:41:11;;;;;;;17.52;7.13;;;18.90;99.20;;;;;;5051930;28;20025;-76
2023/07/02 00:43:43;;;;;;;23.50;9.35;;;18.90;98.80;;;;;;5051523;28;20104;-77
2023/07/02 00:46:12;;;;;;;11.35;6.60;;;18.90;99.10;;;;;;5068550;28;20427;-75
2023/07/02 00:48:39;;;;;;;13.90;7.22;;;18.90;98.30;;;;;;5069851;28;20085;-77
2023/07/02 00:51:05;;;;;;;13.60;7.65;;;18.80;98.80;;;;;;5051639;28;20130;-78
2023/07/02 00:53:32;;;;;;;21.98;7.68;;;18.80;99.10;;;;;;5070547;28;20012;-78
2023/07/02 00:55:58;;;;;;;20.13;8.70;;;18.70;98.50;;;;;;5069453;28;20028;-78
2023/07/02 00:58:23;;;;;;;17.08;7.28;;;18.60;98.40;;;;;;5069232;28;20097;-78
2023/07/02 01:00:49;;;;;;;17.63;8.43;;;18.60;97.80;;;;;;5069844;28;20036;-76
2023/07/02 01:03:15;;;;;;;15.55;7.85;;;18.50;97.60;;;;;;5070372;28;20517;-77
2023/07/02 01:05:41;;;;;;;18.73;7.78;;;18.40;97.20;;;;;;5069773;28;20021;-77
2023/07/02 01:08:07;;;;;;;18.15;7.28;;;18.30;97.10;;;;;;5070562;28;20028;-79
2023/07/02 01:10:35;;;;;;;17.83;8.65;;;18.30;97.40;;;;;;5069601;28;20024;-76
2023/07/02 01:13:08;;;;;;;12.60;6.80;;;18.30;97.10;;;;;;5069468;28;20017;-76
2023/07/02 01:15:34;;;;;;;18.10;7.55;;;18.20;97.10;;;;;;5055959;28;20048;-76
2023/07/02 01:18:01;;;;;;;15.90;7.05;;;18.20;97.20;;;;;;5055396;28;20044;-79
2023/07/02 01:20:28;;;;;;;16.48;7.00;;;18.20;97.30;;;;;;5068143;28;20020;-78
2023/07/02 01:22:54;;;;;;;15.23;6.93;;;18.10;97.60;;;;;;5051166;28;20051;-78
2023/07/02 01:25:24;;;;;;;15.57;6.97;;;18.10;97.70;;;;;;5069636;28;20048;-75
2023/07/02 01:27:51;;;;;;;18.55;7.38;;;18.10;97.80;;;;;;5069082;28;20088;-76
2023/07/02 01:30:17;;;;;;;16.90;7.55;;;18.10;97.90;;;;;;5069256;28;20486;-77
2023/07/02 01:32:43;;;;;;;16.83;6.78;;;18.10;98.00;;;;;;5068868;28;20025;-77
2023/07/02 01:35:08;;;;;;;12.60;7.32;;;18.10;98.20;;;;;;5068931;28;20410;-77
2023/07/02 01:37:37;;;;;;;18.13;7.72;;;18.00;98.20;;;;;;5068913;28;20028;-77
2023/07/02 01:40:06;;;;;;;16.70;7.15;;;18.00;98.30;;;;;;5069311;28;20158;-77
2023/07/02 01:42:32;;;;;;;14.45;7.38;;;17.90;98.40;;;;;;5069384;28;20055;-78
2023/07/02 01:44:58;;;;;;;14.73;7.38;;;17.80;98.40;;;;;;5068996;28;20458;-76
2023/07/02 01:47:23;;;;;;;13.45;7.75;;;17.80;98.70;;;;;;5069579;28;20048;-75
2023/07/02 01:49:50;;;;;;;17.27;6.90;;;17.70;98.50;;;;;;5069090;28;20032;-76
2023/07/02 01:52:16;;;;;;;15.27;7.70;;;17.70;98.50;;;;;;5068852;28;20028;-76
2023/07/02 01:54:41;;;;;;;16.70;7.97;;;17.70;98.50;;;;;;5051552;28;20024;-77
2023/07/02 01:57:07;;;;;;;17.05;8.10;;;17.70;98.40;;;;;;5068784;28;20303;-77
2023/07/02 01:59:33;;;;;;;19.25;7.63;;;17.60;98.30;;;;;;5068536;28;20029;-77
2023/07/02 02:01:58;;;;;;;16.27;7.88;;;17.60;98.40;;;;;;5067974;28;20491;-76
2023/07/02 02:04:24;;;;;;;17.10;7.78;;;17.50;98.40;;;;;;5068646;28;20033;-76
2023/07/02 02:06:50;;;;;;;16.27;8.52;;;17.50;98.40;;;;;;5068285;28;20032;-76
2023/07/02 02:09:15;;;;;;;19.85;8.38;;;17.50;98.50;;;;;;5068684;28;20082;-77
2023/07/02 02:11:43;;;;;;;15.80;8.25;;;17.50;98.40;;;;;;5068867;28;20056;-76
2023/07/02 02:14:09;;;;;;;17.20;8.02;;;17.50;98.50;;;;;;5068648;28;20020;-76
2023/07/02 02:16:35;;;;;;;22.38;9.02;;;17.50;98.50;;;;;;5050463;28;20082;-77
2023/07/02 02:19:00;;;;;;;20.38;9.23;;;17.40;98.60;;;;;;5050556;28;20136;-77
2023/07/02 02:21:26;;;;;;;18.17;8.35;;;17.40;98.60;;;;;;5068113;28;20032;-76
2023/07/02 02:23:52;;;;;;;18.85;8.98;;;17.30;98.70;;;;;;5050351;28;20052;-76
2023/07/02 02:26:18;;;;;;;16.55;8.75;;;17.30;98.90;;;;;;5049868;28;20491;-76
2023/07/02 02:28:43;;;;;;;16.48;9.63;;;17.20;98.90;;;;;;5068858;28;20093;-75
2023/07/02 02:31:09;;;;;;;16.67;8.38;;;17.20;99.00;;;;;;5051553;28;20032;-75
2023/07/02 02:33:35;;;;;;;18.00;9.45;;;17.20;99.00;;;;;;5071496;28;20017;-75
2023/07/02 02:36:02;;;;;;;16.58;8.18;;;17.10;99.20;;;;;;5069866;28;20070;-76
2023/07/02 02:38:27;;;;;;;18.60;8.27;;;17.10;99.20;;;;;;5060028;28;20024;-76
2023/07/02 02:40:53;;;;;;;22.52;9.57;;;17.00;99.30;;;;;;5069976;28;20084;-76
2023/07/02 02:43:20;;;;;;;20.88;8.80;;;17.00;99.40;;;;;;5069380;28;20032;-76
2023/07/02 02:45:46;;;;;;;25.88;9.32;;;17.00;99.40;;;;;;5071249;28;20035;-75
2023/07/02 02:48:12;;;;;;;19.00;9.98;;;17.00;99.40;;;;;;5072123;28;20437;-76
2023/07/02 02:50:41;;;;;;;20.75;9.48;;;17.00;99.40;;;;;;5071988;28;20382;-76
2023/07/02 02:53:10;;;;;;;27.50;9.27;;;17.00;99.50;;;;;;5054089;28;20398;-75
2023/07/02 02:55:36;;;;;;;20.88;9.45;;;17.00;99.40;;;;;;5071706;28;20044;-76
2023/07/02 02:58:02;;;;;;;17.15;9.32;;;17.00;99.50;;;;;;5071583;28;20577;-75
2023/07/02 03:00:28;;;;;;;19.83;10.18;;;17.00;99.50;;;;;;5071696;28;20112;-75
2023/07/02 03:02:55;;;;;;;21.10;9.30;;;17.00;99.60;;;;;;5071738;28;20100;-76
2023/07/02 03:05:22;;;;;;;19.65;8.80;;;17.00;99.60;;;;;;5071811;28;20020;-75
2023/07/02 03:07:47;;;;;;;18.98;9.05;;;17.00;99.80;;;;;;5071841;28;20074;-76
2023/07/02 03:10:13;;;;;;;19.55;9.38;;;17.00;99.60;;;;;;5072050;28;20020;-75
2023/07/02 03:12:39;;;;;;;18.92;9.57;;;17.00;99.50;;;;;;5071787;28;20052;-75
2023/07/02 03:15:05;;;;;;;22.20;8.90;;;17.00;99.50;;;;;;5071654;28;20108;-76
2023/07/02 03:17:31;;;;;;;23.20;10.18;;;17.00;99.50;;;;;;5071579;28;20127;-76
2023/07/02 03:19:56;;;;;;;19.63;9.52;;;17.00;99.60;;;;;;5071285;28;20525;-75
2023/07/02 03:22:22;;;;;;;21.13;9.20;;;17.00;99.70;;;;;;5071178;28;20390;-76
2023/07/02 03:24:48;;;;;;;18.92;8.55;;;16.90;99.60;;;;;;5062673;28;20052;-75
2023/07/02 03:27:14;;;;;;;20.35;8.88;;;16.90;99.50;;;;;;5071717;28;20071;-77
2023/07/02 03:29:39;;;;;;;17.15;8.57;;;16.90;99.40;;;;;;5071979;28;20029;-76
2023/07/02 03:32:05;;;;;;;19.00;9.75;;;16.80;99.40;;;;;;5070820;28;20441;-76
2023/07/02 03:34:31;;;;;;;21.20;9.52;;;16.80;99.30;;;;;;5050699;28;20078;-76
2023/07/02 03:36:56;;;;;;;19.92;8.85;;;16.80;99.30;;;;;;5070137;28;20402;-75
2023/07/02 03:39:22;;;;;;;17.33;9.20;;;16.80;99.30;;;;;;5071317;28;20021;-76
2023/07/02 03:41:47;;;;;;;21.30;8.90;;;16.70;99.20;;;;;;5048528;28;20040;-72
2023/07/02 03:44:13;;;;;;;17.92;8.23;;;16.70;99.30;;;;;;5067434;28;20489;-76
2023/07/02 03:46:39;;;;;;;21.38;9.40;;;16.70;99.30;;;;;;5052934;28;20032;-76
2023/07/02 03:49:04;;;;;;;19.88;9.25;;;16.70;99.50;;;;;;5057990;28;20037;-76
2023/07/02 03:51:31;;;;;;;20.10;8.90;;;16.70;99.50;;;;;;5053469;28;20020;-76
2023/07/02 03:54:00;;;;;;;21.45;8.32;;;16.70;99.50;;;;;;5071092;28;20128;-77
2023/07/02 03:56:26;;;;;;;27.20;9.73;;;16.70;99.50;;;;;;5069182;28;20123;-76
2023/07/02 03:58:52;;;;;;;23.38;8.98;;;16.70;99.40;;;;;;5046735;28;20139;-76
2023/07/02 04:01:18;;;;;;;20.05;9.40;;;16.70;99.30;;;;;;5043588;28;20031;-76
2023/07/02 04:03:52;;;;;;;20.77;8.77;;;16.70;99.40;;;;;;5070513;28;20021;-76
2023/07/02 04:06:17;;;;;;;21.05;10.10;;;16.70;99.30;;;;;;5070786;28;20017;-77
2023/07/02 04:08:46;;;;;;;17.90;8.30;;;16.70;99.20;;;;;;5054158;28;20021;-77
2023/07/02 04:11:12;;;;;;;18.98;9.27;;;16.60;99.10;;;;;;5070495;28;20024;-76
2023/07/02 04:13:39;;;;;;;17.00;8.00;;;16.70;99.00;;;;;;5070560;28;20429;-76
2023/07/02 04:16:05;;;;;;;19.35;8.13;;;16.70;99.00;;;;;;5067663;28;20039;-75
2023/07/02 04:18:30;;;;;;;18.10;7.78;;;16.70;99.10;;;;;;5070144;28;20486;-75
2023/07/02 04:20:58;;;;;;;22.55;8.68;;;16.70;99.00;;;;;;5070162;28;20031;-75
2023/07/02 04:23:24;;;;;;;22.67;8.38;;;16.70;98.80;;;;;;5069910;28;20066;-76
2023/07/02 04:25:49;;;;;;;15.75;8.70;;;16.60;98.70;;;;;;5070372;28;20035;-75
2023/07/02 04:28:17;;;;;;;19.33;7.78;;;16.70;98.50;;;;;;5070257;28;20016;-75
2023/07/02 04:30:42;;;;;;;22.77;9.20;;;16.70;98.40;;;;;;5070286;28;20034;-75
2023/07/02 04:33:08;;;;;;;21.42;9.77;;;16.70;98.30;;;;;;5069764;28;20491;-75
2023/07/02 04:35:34;;;;;;;26.85;9.85;;;16.70;98.10;;;;;;5070739;28;20021;-76
2023/07/02 04:38:01;;;;;;;17.52;8.02;;;16.60;98.00;;;;;;5070364;28;20033;-76
2023/07/02 04:40:27;;;;;;;15.30;8.57;;;16.70;98.10;;;;;;5069937;28;20069;-76
2023/07/02 04:42:57;;;;;;;18.95;8.48;;;16.70;98.00;;;;;;5069976;28;20028;-75
2023/07/02 04:45:26;;;;;;;;;;;16.70;97.90;;;;;;5070348;28;20029;-76
2023/07/02 04:47:51;;;;;;;21.23;9.77;;;16.70;97.80;;;;;;5068425;28;19905;-76
2023/07/02 04:50:18;;;;;;;14.85;8.15;;;16.70;97.80;;;;;;5068684;28;20398;-77
2023/07/02 04:52:44;;;;;;;24.38;9.27;;;16.80;97.90;;;;;;5056565;28;20029;-77
2023/07/02 04:55:10;;;;;;;23.48;9.88;;;16.80;97.70;;;;;;5067754;28;20389;-77
2023/07/02 04:57:36;;;;;;;22.35;9.70;;;16.80;97.70;;;;;;5060854;28;20123;-77
2023/07/02 05:00:03;;;;;;;25.95;8.38;;;16.90;97.50;;;;;;5070017;28;20059;-76
2023/07/02 05:02:29;;;;;;;20.42;9.13;;;16.90;97.40;;;;;;5056529;28;20025;-76
2023/07/02 05:04:55;;;;;;;23.20;8.30;;;16.90;97.30;;;;;;5051155;28;20032;-76
2023/07/02 05:07:20;;;;;;;17.80;8.90;;;17.00;97.20;;;;;;5056134;28;20024;-75
2023/07/02 05:09:48;;;;;;;26.02;10.10;;;17.00;97.10;;;;;;5069616;28;20021;-76
2023/07/02 05:12:14;;;;;;;14.93;7.47;;;17.00;97.10;;;;;;5055289;28;20105;-75
2023/07/02 05:14:42;;;;;;;21.92;9.90;;;17.10;97.20;;;;;;5044097;28;20507;-74
2023/07/02 05:17:08;;;;;;;22.10;8.75;;;17.20;96.90;;;;;;5060756;28;20029;-77
2023/07/02 05:19:33;;;;;;;18.73;9.02;;;17.20;96.60;;;;;;5063050;28;20112;-77
2023/07/02 05:21:59;;;;;;;23.05;9.93;;;17.30;96.40;;;;;;5062038;28;20029;-74
2023/07/02 05:24:25;;;;;;;21.45;9.27;;;17.30;96.30;;;;;;5064176;28;20163;-75
2023/07/02 05:26:50;;;;;;;20.65;8.43;;;17.40;96.10;;;;;;5057689;28;20074;-75
2023/07/02 05:29:16;;;;;;;26.35;9.25;;;17.40;96.00;;;;;;5064628;28;20032;-77
2023/07/02 05:31:42;;;;;;;23.80;9.10;;;17.50;95.70;;;;;;5062278;28;20032;-74
2023/07/02 05:34:08;;;;;;;23.83;8.95;;;17.50;95.80;;;;;;5059958;28;20059;-74
2023/07/02 05:36:34;;;;;;;28.92;9.35;;;17.50;95.50;;;;;;5064125;28;20036;-75
2023/07/02 05:39:00;;;;;;;20.02;8.35;;;17.40;95.10;;;;;;5064786;28;20039;-75
2023/07/02 05:41:30;;;;;;;19.42;8.25;;;17.40;95.10;;;;;;5061585;28;20017;-75
2023/07/02 05:43:56;;;;;;;21.23;8.55;;;17.50;95.10;;;;;;5042534;28;20027;-75
2023/07/02 05:46:23;;;;;;;23.83;8.98;;;17.50;95.00;;;;;;5058591;28;20404;-75
2023/07/02 05:48:49;;;;;;;21.45;9.25;;;17.50;94.90;;;;;;5058342;28;20025;-75
2023/07/02 05:51:20;;;;;;;23.90;9.43;;;17.50;94.90;;;;;;5059981;28;20066;-75
2023/07/02 05:53:46;;;;;;;20.95;8.77;;;17.60;94.60;;;;;;5064437;28;20053;-76
2023/07/02 05:56:11;;;;;;;22.90;9.32;;;17.60;94.40;;;;;;5057095;28;20052;-76
2023/07/02 05:58:37;;;;;;;25.90;9.25;;;17.70;94.30;;;;;;5064550;28;20056;-76
2023/07/02 06:01:05;;;;;;;19.25;9.38;;;17.70;93.90;;;;;;5054915;28;20036;-75
2023/07/02 06:03:30;;;;;;;27.90;10.38;;;17.70;94.10;;;;;;5068797;28;20024;-75
2023/07/02 06:05:56;;;;;;;26.42;10.55;;;17.70;93.90;;;;;;5064747;28;20023;-76
2023/07/02 06:08:22;;;;;;;23.67;9.05;;;17.70;93.60;;;;;;5071695;28;20466;-76
2023/07/02 06:10:48;;;;;;;24.67;9.27;;;17.80;93.60;;;;;;5073259;28;20029;-75
2023/07/02 06:13:14;;;;;;;26.48;8.77;;;17.90;93.40;;;;;;5072459;28;20427;-77
2023/07/02 06:15:40;;;;;;;26.52;8.75;;;18.00;93.50;;;;;;5073234;28;20046;-76
2023/07/02 06:18:06;;;;;;;24.48;8.88;;;18.10;93.20;;;;;;5072673;28;20660;-74
2023/07/02 06:20:32;;;;;;;17.50;7.10;;;18.20;93.20;;;;;;5069649;28;20029;-72
2023/07/02 06:22:57;;;;;;;19.67;7.47;;;18.30;93.40;;;;;;5073005;28;20036;-73
2023/07/02 06:25:23;;;;;;;19.40;8.32;;;18.50;93.10;;;;;;5072583;28;20078;-74
2023/07/02 06:27:52;;;;;;;17.85;6.90;;;18.60;92.60;;;;;;5072308;28;20391;-74
2023/07/02 06:30:17;;;;;;;12.93;6.13;;;18.60;92.60;;;;;;5072171;28;20110;-74
2023/07/02 06:32:43;;;;;;;15.82;6.60;;;18.70;92.60;;;;;;5072181;28;20533;-75
2023/07/02 06:35:09;;;;;;;12.57;6.28;;;18.60;92.40;;;;;;5071949;28;20685;-75
2023/07/02 06:37:34;;;;;;;19.00;6.75;;;18.70;92.50;;;;;;5072545;28;20039;-73
2023/07/02 06:40:00;;;;;;;16.38;6.55;;;18.70;92.20;;;;;;5072179;28;20020;-73
2023/07/02 06:42:26;;;;;;;19.83;6.65;;;18.80;92.00;;;;;;5072174;28;20116;-73
2023/07/02 06:44:51;;;;;;;15.98;6.20;;;18.80;92.20;;;;;;5072289;28;20021;-74
2023/07/02 06:47:17;;;;;;;15.50;6.63;;;18.90;91.70;;;;;;5069985;28;20025;-74
2023/07/02 06:49:43;;;;;;;14.73;5.78;;;19.00;91.80;;;;;;5071783;28;20464;-73
2023/07/02 06:52:09;;;;;;;17.35;5.88;;;19.00;91.90;;;;;;5071570;28;20510;-74
2023/07/02 06:54:35;;;;;;;17.23;6.53;;;19.10;91.60;;;;;;5067349;28;20063;-75
2023/07/02 06:57:01;;;;;;;15.88;6.35;;;19.20;91.40;;;;;;5064726;28;20036;-73
2023/07/02 06:59:27;;;;;;;13.07;5.65;;;19.20;91.10;;;;;;5068049;28;20032;-75
2023/07/02 07:01:52;;;;;;;15.30;6.57;;;19.20;91.10;;;;;;5066128;28;20021;-75
2023/07/02 07:04:18;;;;;;;13.65;5.88;;;19.30;91.20;;;;;;5046213;28;20600;-73
2023/07/02 07:06:44;;;;;;;14.52;6.28;;;19.30;90.90;;;;;;5030855;28;20020;-74
2023/07/02 07:09:09;;;;;;;13.57;5.45;;;19.30;90.70;;;;;;5071582;28;20074;-75
2023/07/02 07:11:35;;;;;;;15.65;7.00;;;19.30;91.00;;;;;;5058126;28;20089;-74
2023/07/02 07:14:02;;;;;;;15.88;6.22;;;19.30;90.20;;;;;;5070652;28;20040;-75
2023/07/02 07:16:28;;;;;;;12.10;5.18;;;19.20;90.40;;;;;;5052173;28;20131;-74
2023/07/02 07:18:53;;;;;;;13.52;5.88;;;19.30;90.70;;;;;;5062687;28;20099;-74
2023/07/02 07:21:19;;;;;;;16.02;6.32;;;19.40;90.50;;;;;;5071603;28;20043;-73
2023/07/02 07:23:45;;;;;;;15.07;6.45;;;19.40;90.40;;;;;;5065212;28;20508;-74
2023/07/02 07:26:10;;;;;;;14.70;6.18;;;19.40;90.10;;;;;;5068847;28;20032;-73
2023/07/02 07:28:36;;;;;;;14.35;6.07;;;19.30;89.40;;;;;;5068795;28;20020;-75
2023/07/02 07:31:02;;;;;;;11.48;5.85;;;19.20;90.00;;;;;;5071611;28;20033;-75
2023/07/02 07:33:28;;;;;;;18.55;6.47;;;19.40;90.20;;;;;;5070012;28;20112;-75
2023/07/02 07:35:54;;;;;;;17.00;7.75;;;19.50;90.00;;;;;;5069970;28;20036;-78
2023/07/02 07:38:19;;;;;;;18.77;6.25;;;19.40;89.00;;;;;;5071437;28;20028;-78
2023/07/02 07:40:45;;;;;;;18.73;6.57;;;19.40;90.10;;;;;;5054222;28;20418;-76
2023/07/02 07:43:11;;;;;;;16.85;6.68;;;19.50;90.50;;;;;;5053734;28;20035;-77
2023/07/02 07:45:37;;;;;;;18.83;6.63;;;19.50;90.10;;;;;;5052090;28;20075;-76
2023/07/02 07:48:04;;;;;;;18.25;6.82;;;19.50;88.40;;;;;;5062991;28;20048;-76
2023/07/02 07:50:30;;;;;;;17.55;7.32;;;19.40;88.00;;;;;;5061348;28;20028;-77
2023/07/02 07:53:01;;;;;;;18.92;7.30;;;19.40;88.30;;;;;;5065310;28;20085;-75
2023/07/02 07:55:27;;;;;;;14.85;6.40;;;19.50;88.80;;;;;;5066353;28;20052;-77
2023/07/02 07:57:53;;;;;;;19.27;7.60;;;19.50;88.50;;;;;;5059998;28;20090;-78
2023/07/02 08:00:18;;;;;;;17.00;6.43;;;19.40;88.10;;;;;;5060311;28;20502;-77
2023/07/02 08:02:46;;;;;;;14.90;7.20;;;19.40;88.20;;;;;;5065607;28;20012;-76
2023/07/02 08:05:12;;;;;;;18.13;7.28;;;19.30;88.00;;;;;;5060246;28;20017;-75
2023/07/02 08:07:40;;;;;;;19.58;8.07;;;19.30;88.60;;;;;;5062356;28;20084;-76
2023/07/02 08:10:07;;;;;;;15.85;6.65;;;19.20;88.40;;;;;;5052048;28;20394;-75
2023/07/02 08:12:33;;;;;;;17.73;6.78;;;19.30;89.00;;;;;;5062479;28;20028;-75
2023/07/02 08:14:59;;;;;;;19.27;7.45;;;19.40;88.80;;;;;;5060990;28;20025;-78
2023/07/02 08:17:25;;;;;;;16.27;7.18;;;19.40;89.00;;;;;;5067487;28;20046;-76
2023/07/02 08:19:50;;;;;;;16.83;6.20;;;19.40;87.50;;;;;;5057648;28;20436;-77
2023/07/02 08:22:16;;;;;;;17.60;6.97;;;19.60;85.10;;;;;;5065229;28;20024;-76
2023/07/02 08:24:45;;;;;;;14.52;6.10;;;19.50;84.20;;;;;;5067996;28;20486;-77
2023/07/02 08:27:13;;;;;;;13.52;6.13;;;19.70;85.00;;;;;;5031041;28;20016;-76
2023/07/02 08:29:39;;;;;;;16.73;7.07;;;19.80;82.10;;;;;;5069091;28;20020;-76
2023/07/02 08:32:05;;;;;;;15.57;6.93;;;20.00;81.30;;;;;;5069149;28;20029;-76
2023/07/02 08:34:30;;;;;;;14.73;6.25;;;20.10;79.20;;;;;;5055862;28;20020;-76
2023/07/02 08:36:56;;;;;;;14.77;6.30;;;20.00;78.20;;;;;;5069699;28;20113;-76
2023/07/02 08:39:22;;;;;;;14.85;6.68;;;19.90;77.80;;;;;;5070627;28;20478;-77
2023/07/02 08:41:48;;;;;;;11.82;5.30;;;19.80;77.30;;;;;;5070157;28;20040;-74
2023/07/02 08:44:22;;;;;;;13.45;5.72;;;19.70;78.90;;;;;;5070545;28;20087;-76
2023/07/02 08:46:50;;;;;;;14.65;5.75;;;19.50;78.20;;;;;;5064677;28;20013;-75
2023/07/02 08:49:17;;;;;;;17.52;6.65;;;19.50;78.00;;;;;;5066229;28;20017;-75
2023/07/02 08:51:47;;;;;;;16.13;6.78;;;19.50;79.30;;;;;;5051756;28;20021;-73
2023/07/02 08:54:13;;;;;;;15.00;6.53;;;19.50;79.40;;;;;;5052233;28;20086;-77
2023/07/02 08:56:39;;;;;;;12.55;5.43;;;19.60;79.70;;;;;;5069763;28;20040;-76
2023/07/02 08:59:08;;;;;;;13.55;6.20;;;19.90;82.00;;;;;;5069334;28;20028;-75
2023/07/02 09:01:49;;;;;;;14.35;6.07;;;20.30;81.00;;;;;;5066890;28;20088;-74
2023/07/02 09:04:17;;;;;;;;;;;20.60;77.30;;;;;;5051789;28;20059;-75
2023/07/02 09:06:43;;;;;;;16.05;6.32;;;20.80;78.50;;;;;;5055446;28;19908;-74
2023/07/02 09:09:09;;;;;;;12.25;5.28;;;21.00;79.30;;;;;;5068886;28;20386;-76
2023/07/02 09:11:35;;;;;;;13.60;5.00;;;20.90;80.50;;;;;;5068707;28;20533;-77
2023/07/02 09:14:00;;;;;;;13.85;5.60;;;20.80;82.20;;;;;;5069206;28;20021;-76
2023/07/02 09:16:32;;;;;;;15.60;6.22;;;20.70;81.00;;;;;;5064704;28;20569;-75
2023/07/02 09:19:04;;;;;;;15.23;6.00;;;20.50;79.60;;;;;;5068965;28;20025;-74
2023/07/02 09:21:45;;;;;;;16.80;5.80;;;20.50;81.80;;;;;;5066332;28;20029;-74
2023/07/02 09:24:19;;;;;;;15.98;5.72;;;20.80;71.80;;;;;;5049783;28;20079;-75
2023/07/02 09:26:49;;;;;;;14.52;6.22;;;21.00;75.20;;;;;;5049955;28;20085;-76
2023/07/02 09:29:23;;;;;;;13.82;5.60;;;21.10;74.00;;;;;;5069482;28;20024;-76
2023/07/02 09:31:49;;;;;;;12.90;5.55;;;21.10;81.60;;;;;;5068122;28;20032;-75
2023/07/02 09:34:15;;;;;;;13.52;5.25;;;21.30;73.40;;;;;;5068992;28;20028;-75
2023/07/02 09:36:42;;;;;;;9.60;4.30;;;21.40;70.60;;;;;;5069098;28;20442;-77
2023/07/02 09:39:21;;;;;;;11.55;5.03;;;21.50;71.40;;;;;;5061685;28;20016;-76
2023/07/02 09:41:49;;;;;;;14.35;5.15;;;21.40;68.20;;;;;;5067586;28;20071;-76
2023/07/02 09:44:17;;;;;;;11.77;4.93;;;21.40;67.50;;;;;;5068802;28;20544;-75
2023/07/02 09:46:49;;;;;;;25.58;5.38;;;21.50;69.20;;;;;;5064906;28;20025;-74
2023/07/02 09:49:17;;;;;;;10.13;4.03;;;21.80;65.40;;;;;;5068372;28;20028;-76
2023/07/02 09:51:43;;;;;;;12.23;4.82;;;22.00;66.60;;;;;;5063298;28;20061;-76
2023/07/02 09:54:10;;;;;;;11.48;4.55;;;22.10;61.30;;;;;;5067424;28;20024;-75
2023/07/02 09:56:35;;;;;;;10.23;4.22;;;22.10;62.30;;;;;;5066515;28;20082;-77
2023/07/02 09:59:01;;;;;;;12.13;4.82;;;22.00;62.20;;;;;;5065641;28;20025;-76
2023/07/02 10:01:27;;;;;;;13.32;4.60;;;21.90;64.30;;;;;;5065209;28;20104;-76
2023/07/02 10:03:52;;;;;;;11.05;5.07;;;21.80;62.90;;;;;;5065713;28;20032;-77
2023/07/02 10:06:18;;;;;;;9.05;4.22;;;22.10;61.90;;;;;;5065462;28;20610;-77
2023/07/02 10:08:56;;;;;;;10.13;4.30;;;22.10;63.00;;;;;;5065746;28;20020;-74
2023/07/02 10:11:34;;;;;;;11.50;4.50;;;22.10;62.40;;;;;;5065556;28;20074;-76
2023/07/02 10:14:00;;;;;;;11.25;4.20;;;22.20;60.40;;;;;;5065239;28;20028;-76
2023/07/02 10:16:31;;;;;;;7.88;3.90;;;22.30;63.60;;;;;;5065273;28;20040;-75
2023/07/02 10:19:11;;;;;;;9.60;3.78;;;22.60;59.80;;;;;;5065366;28;20112;-78
2023/07/02 10:21:37;;;;;;;7.45;3.50;;;22.90;59.70;;;;;;5053780;28;20017;-75
2023/07/02 10:24:13;;;;;;;11.95;4.10;;;23.00;58.90;;;;;;5053410;28;20090;-76
2023/07/02 10:26:51;;;;;;;10.02;3.70;;;23.10;57.10;;;;;;5067354;28;20024;-76
2023/07/02 10:29:20;;;;;;;9.48;4.60;;;22.90;62.10;;;;;;5068528;28;20032;-76
2023/07/02 10:31:50;;;;;;;9.83;4.20;;;22.90;59.40;;;;;;5068265;28;20032;-75
2023/07/02 10:34:16;;;;;;;9.82;4.10;;;23.10;59.30;;;;;;5067876;28;20097;-75
2023/07/02 10:36:42;;;;;;;9.07;3.85;;;23.30;58.00;;;;;;5068177;28;20051;-76
2023/07/02 10:39:08;;;;;;;9.43;3.60;;;23.50;57.40;;;;;;5067726;28;20032;-78
2023/07/02 10:41:34;;;;;;;7.82;3.75;;;23.70;56.60;;;;;;5067952;28;20024;-75
2023/07/02 10:44:07;;;;;;;11.23;3.92;;;23.50;56.70;;;;;;5067492;28;20043;-75
2023/07/02 10:46:33;;;;;;;10.15;3.88;;;23.30;55.50;;;;;;5056720;28;20033;-77
2023/07/02 10:49:00;;;;;;;11.02;4.28;;;23.00;56.00;;;;;;5068223;28;20029;-75
2023/07/02 10:51:28;;;;;;;10.05;3.92;;;23.00;58.40;;;;;;5069111;28;20020;-77
2023/07/02 10:54:02;;;;;;;11.30;4.60;;;22.90;56.30;;;;;;5070274;28;20078;-77
2023/07/02 10:56:29;;;;;;;13.15;4.65;;;22.80;57.90;;;;;;5072098;28;20050;-78
2023/07/02 10:58:55;;;;;;;8.10;3.63;;;22.80;58.90;;;;;;5071469;28;20020;-76
2023/07/02 11:01:31;;;;;;;10.52;4.07;;;23.00;62.00;;;;;;5071351;28;20132;-77
2023/07/02 11:03:59;;;;;;;9.05;4.30;;;22.80;57.00;;;;;;5071815;28;20421;-77
2023/07/02 11:06:26;;;;;;;11.25;4.63;;;22.70;56.70;;;;;;5053800;28;20024;-75
2023/07/02 11:08:52;;;;;;;8.45;3.88;;;22.70;57.10;;;;;;5071772;28;20466;-77
2023/07/02 11:11:17;;;;;;;10.85;4.22;;;22.80;58.20;;;;;;5072084;28;20029;-75
2023/07/02 11:13:47;;;;;;;10.40;4.05;;;22.80;56.90;;;;;;5071340;28;20071;-76
2023/07/02 11:16:19;;;;;;;14.13;5.43;;;22.90;56.40;;;;;;5066989;28;20394;-77
2023/07/02 11:18:44;;;;;;;8.43;4.38;;;23.10;55.90;;;;;;5071733;28;20027;-75
2023/07/02 11:21:10;;;;;;;9.45;3.95;;;23.00;54.60;;;;;;5070806;28;20025;-76
2023/07/02 11:23:36;;;;;;;7.60;3.85;;;23.00;56.40;;;;;;5071159;28;20041;-75
2023/07/02 11:26:02;;;;;;;6.38;3.65;;;23.10;55.90;;;;;;5071093;28;20044;-77
2023/07/02 11:28:34;;;;;;;10.52;4.22;;;23.40;60.00;;;;;;5071129;28;20028;-75
2023/07/02 11:31:02;;;;;;;8.98;3.75;;;23.70;54.20;;;;;;5071292;28;20055;-75
2023/07/02 11:33:37;;;;;;;8.02;3.85;;;23.60;59.20;;;;;;5071511;28;20139;-76
2023/07/02 11:36:05;;;;;;;10.25;4.28;;;23.50;53.80;;;;;;5071288;28;20083;-75
2023/07/02 11:38:30;;;;;;;9.18;3.90;;;23.40;54.50;;;;;;5072044;28;20028;-75
2023/07/02 11:40:56;;;;;;;9.90;3.47;;;23.40;53.50;;;;;;5071590;28;20020;-76
2023/07/02 11:43:22;;;;;;;9.68;4.25;;;23.20;55.70;;;;;;5071113;28;20020;-77
2023/07/02 11:45:48;;;;;;;8.90;3.55;;;23.00;54.20;;;;;;5069777;28;20542;-75
2023/07/02 11:48:13;;;;;;;9.75;3.55;;;23.00;55.40;;;;;;5060411;28;20112;-74
2023/07/02 11:50:39;;;;;;;9.05;3.35;;;23.10;53.80;;;;;;5071232;28;20111;-77
2023/07/02 11:53:05;;;;;;;12.57;3.75;;;23.10;57.40;;;;;;5070791;28;20111;-78
2023/07/02 11:55:31;;;;;;;13.70;3.78;;;23.00;53.40;;;;;;5070657;28;20025;-76
2023/07/02 11:57:57;;;;;;;8.32;3.38;;;23.00;55.40;;;;;;5070456;28;20039;-75
2023/07/02 12:00:22;;;;;;;9.15;3.95;;;23.30;58.00;;;;;;5068917;28;20818;-76
2023/07/02 12:02:49;;;;;;;7.78;3.58;;;23.60;55.60;;;;;;5069965;28;20539;-77
2023/07/02 12:05:14;;;;;;;9.05;3.55;;;23.60;53.80;;;;;;5070711;28;20044;-74
2023/07/02 12:07:40;;;;;;;7.28;3.20;;;23.60;53.50;;;;;;5052689;28;20036;-76
2023/07/02 12:10:07;;;;;;;9.98;3.00;;;23.80;54.00;;;;;;5070347;28;20028;-75
2023/07/02 12:12:36;;;;;;;6.03;2.78;;;23.80;53.70;;;;;;5061587;28;20028;-75
2023/07/02 12:15:02;;;;;;;9.52;3.92;;;23.90;55.20;;;;;;5066733;28;20066;-76
2023/07/02 12:17:28;;;;;;;8.93;4.15;;;24.20;51.10;;;;;;5061800;28;20029;-76
2023/07/02 12:19:53;;;;;;;9.45;3.45;;;24.40;51.00;;;;;;5052195;28;20025;-76
2023/07/02 12:22:21;;;;;;;8.57;3.53;;;24.50;55.80;;;;;;5070188;28;20032;-76
2023/07/02 12:24:49;;;;;;;11.93;4.18;;;24.30;52.30;;;;;;5068090;28;20047;-78
2023/07/02 12:27:15;;;;;;;11.43;4.38;;;24.40;51.20;;;;;;5053634;28;20016;-74
2023/07/02 12:29:41;;;;;;;10.68;3.95;;;24.40;50.20;;;;;;5050607;28;20605;-75
2023/07/02 12:32:07;;;;;;;11.27;3.95;;;24.30;50.50;;;;;;5070122;28;20044;-74
2023/07/02 12:34:32;;;;;;;10.35;3.85;;;24.30;52.50;;;;;;5070020;28;20024;-75
2023/07/02 12:36:58;;;;;;;7.90;3.42;;;24.30;51.70;;;;;;5070336;28;20068;-76